Time;durP1;ratioP1;P1;durP2;ratioP2;P2;SDS_P1;SDS_P2;PMS_P1;PMS_P2;Temp;Humidity;BMP_temperature;BMP_pressure;BME280_temperature;BME280_humidity;BME280_pressure;Samples;Min_cycle;Max_cycle;Signal;HPM_P1;HPM_P2
2022/09/17 00:00:57;;;;;;;;;8.00;8.00;;;;;16.39;54.78;97771.50;6159537;28;96513;-62
2022/09/17 00:04:03;;;;;;;;;10.00;10.00;;;;;16.40;54.78;97770.41;6162652;28;97526;-62
2022/09/17 00:07:06;;;;;;;;;8.00;8.00;;;;;16.28;55.02;97737.34;6163507;28;97533;-63
2022/09/17 00:10:10;;;;;;;;;7.00;7.00;;;;;16.45;54.85;97759.50;6162377;28;97737;-62
2022/09/17 00:13:15;;;;;;;;;8.20;7.00;;;;;16.51;54.74;97757.53;6162536;28;97129;-63
2022/09/17 00:16:24;;;;;;;;;8.00;7.40;;;;;16.55;54.60;97758.56;6163657;28;97415;-63
2022/09/17 00:19:27;;;;;;;;;8.00;7.50;;;;;16.56;54.58;97760.22;6163332;28;96816;-63
2022/09/17 00:22:31;;;;;;;;;7.00;7.00;;;;;16.55;54.56;97759.41;6163091;28;96649;-62
2022/09/17 00:25:37;;;;;;;;;8.00;7.00;;;;;16.52;54.44;97742.84;6163640;28;96860;-63
2022/09/17 00:28:44;;;;;;;;;7.80;6.80;;;;;16.64;54.46;97759.59;6152361;28;97799;-62
2022/09/17 00:31:47;;;;;;;;;8.40;8.00;;;;;16.61;54.55;97765.63;6155130;28;96593;-62
2022/09/17 00:34:52;;;;;;;;;8.00;7.00;;;;;16.63;54.15;97768.84;6163060;28;96657;-62
2022/09/17 00:37:55;;;;;;;;;9.00;8.00;;;;;16.64;54.45;97763.13;6162739;28;96657;-63
2022/09/17 00:40:58;;;;;;;;;11.00;10.00;;;;;16.66;54.42;97760.13;6160672;28;97836;-62
2022/09/17 00:44:35;;;;;;;;;10.00;9.00;;;;;16.64;54.41;97767.78;6162414;28;97559;-62
2022/09/17 00:47:45;;;;;;;;;9.00;8.00;;;;;16.65;54.53;97772.13;6160363;28;96717;-62
2022/09/17 00:50:49;;;;;;;;;9.00;8.00;;;;;16.62;54.42;97773.50;6162300;28;98075;-63
2022/09/17 00:53:52;;;;;;;;;9.00;7.00;;;;;16.58;54.47;97755.28;6161343;28;96445;-63
2022/09/17 00:56:57;;;;;;;;;8.00;8.00;;;;;16.50;54.42;97756.72;6161676;28;97443;-62
2022/09/17 01:00:01;;;;;;;;;7.00;6.00;;;;;16.46;54.54;97758.41;6161547;28;97620;-62
2022/09/17 01:03:05;;;;;;;;;9.00;8.20;;;;;16.45;54.60;97754.06;6159768;28;96723;-62
2022/09/17 01:06:21;;;;;;;;;7.00;6.80;;;;;16.40;54.64;97752.19;6160940;28;96513;-63
2022/09/17 01:09:34;;;;;;;;;6.20;6.20;;;;;16.39;54.62;97745.13;6161838;28;96545;-62
2022/09/17 01:12:56;;;;;;;;;8.00;8.00;;;;;16.32;54.84;97747.34;6158483;28;96823;-62
2022/09/17 01:16:06;;;;;;;;;8.00;7.00;;;;;16.33;54.81;97746.25;6161367;28;97086;-62
2022/09/17 01:19:37;;;;;;;;;5.60;5.60;;;;;16.34;54.59;97747.06;6159054;28;97704;-62
2022/09/17 01:22:53;;;;;;;;;7.80;7.80;;;;;16.31;54.68;97753.09;6158229;28;97361;-62
2022/09/17 01:26:15;;;;;;;;;9.25;8.25;;;;;16.29;54.77;97752.56;6162095;28;97053;-63
2022/09/17 01:29:34;;;;;;;;;7.60;7.60;;;;;16.26;54.80;97758.59;6162924;28;96493;-63
2022/09/17 01:32:45;;;;;;;;;7.80;7.20;;;;;16.20;54.90;97752.38;6160916;28;97314;-62
2022/09/17 01:35:55;;;;;;;;;8.60;8.00;;;;;16.15;54.86;97755.13;6162137;28;97538;-62
2022/09/17 01:39:07;;;;;;;;;8.00;7.40;;;;;16.09;54.94;97755.47;6163239;28;96705;-63
2022/09/17 01:42:17;;;;;;;;;6.20;5.80;;;;;16.06;55.16;97750.59;6160256;28;97741;-62
2022/09/17 01:45:27;;;;;;;;;8.00;7.80;;;;;16.02;55.02;97761.25;6161405;28;97769;-62
2022/09/17 01:48:39;;;;;;;;;8.00;7.00;;;;;15.95;55.11;97758.00;6144819;28;96819;-63
2022/09/17 01:51:47;;;;;;;;;6.00;6.00;;;;;15.88;55.11;97761.03;6151704;28;97461;-63
2022/09/17 01:54:55;;;;;;;;;7.40;7.00;;;;;15.83;54.98;97758.38;6159156;28;97544;-63
2022/09/17 01:58:06;;;;;;;;;7.00;6.60;;;;;15.83;55.21;97758.38;6162489;28;96654;-62
2022/09/17 02:01:14;;;;;;;;;9.00;7.00;;;;;15.85;55.01;97758.09;6162192;28;97403;-62
2022/09/17 02:04:26;;;;;;;;;7.40;6.80;;;;;15.82;54.96;97754.03;6159623;28;97949;-63
2022/09/17 02:07:32;;;;;;;;;6.00;5.00;;;;;15.82;55.30;97756.75;6162665;28;97486;-62
2022/09/17 02:10:42;;;;;;;;;8.00;6.00;;;;;15.85;55.08;97761.63;6153787;28;97128;-62
2022/09/17 02:13:52;;;;;;;;;5.50;5.50;;;;;15.87;54.98;97758.63;6163469;28;97519;-62
2022/09/17 02:17:03;;;;;;;;;6.40;6.40;;;;;15.83;54.83;97754.84;6166814;28;98054;-62
2022/09/17 02:20:10;;;;;;;;;5.80;5.80;;;;;15.87;54.88;97754.00;6163139;28;98412;-62
2022/09/17 02:23:19;;;;;;;;;6.60;6.60;;;;;15.91;54.82;97755.06;6165059;28;96895;-62
2022/09/17 02:26:25;;;;;;;;;5.20;5.00;;;;;15.92;54.67;97756.69;6163609;28;96358;-62
2022/09/17 02:29:33;;;;;;;;;4.00;4.00;;;;;15.92;54.73;97766.75;6165959;28;97456;-62
2022/09/17 02:32:37;;;;;;;;;7.00;7.00;;;;;15.94;54.61;97770.78;6165015;28;96507;-62
2022/09/17 02:35:42;;;;;;;;;5.00;4.00;;;;;15.90;54.64;97777.06;6165152;28;96562;-63
2022/09/17 02:38:46;;;;;;;;;6.00;6.00;;;;;15.87;54.58;97777.66;6163510;28;97405;-63
2022/09/17 02:41:58;;;;;;;;;4.00;3.80;;;;;15.86;54.74;97771.41;6163101;28;96560;-62
2022/09/17 02:45:11;;;;;;;;;5.00;5.00;;;;;15.87;54.72;97766.78;6146610;28;96839;-63
2022/09/17 02:48:39;;;;;;;;;5.00;5.00;;;;;15.88;54.58;97766.47;6165530;28;96782;-63
2022/09/17 02:51:54;;;;;;;;;5.00;5.00;;;;;15.81;54.60;97743.44;6148170;28;96787;-62
2022/09/17 02:55:07;;;;;;;;;6.00;5.00;;;;;15.89;54.69;97751.81;6161403;28;97363;-62
2022/09/17 02:58:24;;;;;;;;;6.20;5.80;;;;;15.88;54.88;97750.19;6161247;28;98018;-63
2022/09/17 03:01:32;;;;;;;;;5.00;5.00;;;;;15.90;54.99;97741.75;6159206;28;96927;-62
2022/09/17 03:04:39;;;;;;;;;5.40;4.80;;;;;15.91;55.00;97737.94;6161750;28;97347;-62
2022/09/17 03:07:44;;;;;;;;;5.00;5.00;;;;;15.93;54.81;97741.19;6162921;28;97589;-64
2022/09/17 03:10:49;;;;;;;;;5.00;5.00;;;;;15.94;54.85;97732.75;6163166;28;97364;-62
2022/09/17 03:13:52;;;;;;;;;4.20;4.20;;;;;15.96;54.75;97727.03;6162491;28;97451;-62
2022/09/17 03:16:56;;;;;;;;;6.00;6.00;;;;;15.93;54.80;97727.59;6164131;28;96616;-62
2022/09/17 03:20:00;;;;;;;;;5.00;5.00;;;;;15.92;54.77;97725.97;6154734;28;96757;-62
2022/09/17 03:23:04;;;;;;;;;6.00;5.00;;;;;15.89;54.95;97730.06;6160298;28;100058;-62
2022/09/17 03:26:08;;;;;;;;;5.00;4.00;;;;;15.83;55.21;97724.97;6169070;28;96945;-62
2022/09/17 03:29:14;;;;;;;;;5.00;5.00;;;;;15.82;55.12;97729.59;6164965;28;97475;-62
2022/09/17 03:32:17;;;;;;;;;6.00;6.00;;;;;15.78;55.26;97722.28;6159660;28;97098;-63
2022/09/17 03:35:20;;;;;;;;;7.00;6.00;;;;;15.71;55.36;97724.50;6164091;28;97613;-62
2022/09/17 03:38:25;;;;;;;;;7.00;7.00;;;;;15.67;55.22;97724.25;6146702;28;97757;-62
2022/09/17 03:41:29;;;;;;;;;6.00;5.00;;;;;15.59;55.30;97716.69;6163619;28;97321;-63
2022/09/17 03:44:32;;;;;;;;;5.00;5.00;;;;;15.45;55.32;97707.53;6178571;28;96865;-62
2022/09/17 03:47:36;;;;;;;;;4.80;4.00;;;;;15.49;55.43;97722.97;6163754;28;96677;-63
2022/09/17 03:50:39;;;;;;;;;6.00;6.00;;;;;15.48;55.65;97715.13;6164029;28;97101;-63
2022/09/17 03:53:44;;;;;;;;;6.00;5.00;;;;;15.48;55.73;97715.94;6160803;28;99061;-63
2022/09/17 03:56:47;;;;;;;;;6.00;6.00;;;;;15.47;55.62;97713.50;6162142;28;97526;-62
2022/09/17 03:59:51;;;;;;;;;6.00;5.00;;;;;15.42;55.45;97711.63;6163143;28;97407;-62
2022/09/17 04:02:54;;;;;;;;;7.00;7.00;;;;;15.37;55.74;97717.09;6154308;28;97809;-63
2022/09/17 04:05:57;;;;;;;;;5.00;5.00;;;;;15.36;55.66;97714.66;6164428;28;97957;-62
2022/09/17 04:09:03;;;;;;;;;7.00;6.40;;;;;15.36;55.40;97704.59;6162921;28;98729;-62
2022/09/17 04:12:07;;;;;;;;;5.00;5.00;;;;;15.34;55.52;97695.94;6163649;28;97336;-62
2022/09/17 04:15:11;;;;;;;;;5.00;4.50;;;;;15.31;55.34;97701.09;6163410;28;96838;-62
2022/09/17 04:18:14;;;;;;;;;6.00;5.00;;;;;15.28;55.79;97688.91;6142389;28;99784;-63
2022/09/17 04:21:17;;;;;;;;;5.00;5.00;;;;;15.27;55.85;97697.31;6163675;28;97364;-62
2022/09/17 04:24:22;;;;;;;;;4.00;4.00;;;;;15.29;56.05;97700.59;6161061;28;97505;-62
2022/09/17 04:27:26;;;;;;;;;5.40;5.00;;;;;15.30;55.94;97699.47;6162071;28;96709;-63
2022/09/17 04:30:29;;;;;;;;;6.00;5.75;;;;;15.31;56.19;97693.75;6163217;28;96816;-63
2022/09/17 04:33:33;;;;;;;;;5.00;5.00;;;;;15.27;56.02;97698.13;6159611;28;97425;-62
2022/09/17 04:36:36;;;;;;;;;6.33;6.00;;;;;15.32;56.00;97714.41;6158725;28;99457;-62
2022/09/17 04:39:41;;;;;;;;;6.00;5.60;;;;;15.30;56.17;97711.13;6161858;28;98343;-62
2022/09/17 04:42:45;;;;;;;;;5.40;5.40;;;;;15.30;56.37;97716.56;6141499;28;96335;-62
2022/09/17 04:45:49;;;;;;;;;7.00;6.33;;;;;15.28;56.43;97721.50;6160383;28;97008;-63
2022/09/17 04:48:52;;;;;;;;;6.00;5.60;;;;;15.29;56.66;97725.03;6162392;28;96906;-62
2022/09/17 04:51:56;;;;;;;;;6.75;5.75;;;;;15.31;56.46;97725.53;6143512;28;97123;-63
2022/09/17 04:55:01;;;;;;;;;7.00;6.00;;;;;15.36;56.66;97715.47;6158563;28;97608;-63
2022/09/17 04:58:04;;;;;;;;;6.00;6.00;;;;;15.42;56.41;97718.97;6157618;28;97685;-62
2022/09/17 05:01:08;;;;;;;;;7.00;5.00;;;;;15.50;56.31;97708.31;6159566;28;97773;-62
2022/09/17 05:04:11;;;;;;;;;6.00;5.40;;;;;15.59;56.33;97697.69;6158239;28;97421;-62
2022/09/17 05:07:14;;;;;;;;;7.00;6.00;;;;;15.69;56.07;97697.59;6162324;28;97544;-62
2022/09/17 05:10:21;;;;;;;;;6.40;5.00;;;;;15.75;56.00;97690.22;6161354;28;97655;-62
2022/09/17 05:13:24;;;;;;;;;6.60;6.00;;;;;15.94;55.80;97693.88;6155942;28;97519;-63
2022/09/17 05:16:28;;;;;;;;;5.40;5.00;;;;;15.97;55.68;97690.59;6162540;28;96818;-62
2022/09/17 05:19:32;;;;;;;;;5.80;5.20;;;;;16.12;55.48;97706.78;6162109;28;96547;-62
2022/09/17 05:22:36;;;;;;;;;7.00;6.33;;;;;16.24;55.27;97712.63;6161450;28;98316;-62
2022/09/17 05:25:40;;;;;;;;;6.00;6.00;;;;;16.43;55.05;97715.44;6159669;28;96680;-62
2022/09/17 05:28:44;;;;;;;;;6.00;5.50;;;;;16.59;54.51;97716.13;6160112;28;96656;-63
2022/09/17 05:31:47;;;;;;;;;6.00;6.00;;;;;16.70;54.28;97713.00;6162838;28;97526;-63
2022/09/17 05:34:51;;;;;;;;;7.00;6.00;;;;;16.75;53.79;97710.22;6161385;28;97489;-63
2022/09/17 05:37:58;;;;;;;;;6.00;6.00;;;;;16.87;53.46;97720.69;6161656;28;97324;-63
2022/09/17 05:41:06;;;;;;;;;5.80;5.80;;;;;16.91;52.97;97691.00;6162069;28;97357;-63
2022/09/17 05:44:09;;;;;;;;;6.80;6.00;;;;;16.91;52.88;97691.00;6146769;28;96530;-62
2022/09/17 05:47:19;;;;;;;;;5.00;5.00;;;;;17.00;52.54;97698.22;6160824;28;96606;-63
2022/09/17 05:50:23;;;;;;;;;7.50;6.50;;;;;16.96;52.42;97710.00;6166477;28;97379;-62
2022/09/17 05:53:26;;;;;;;;;7.00;6.00;;;;;16.91;52.61;97721.72;6165115;28;97376;-63
2022/09/17 05:56:31;;;;;;;;;7.00;7.00;;;;;16.92;52.89;97734.25;6164381;28;97236;-63
2022/09/17 05:59:35;;;;;;;;;5.00;5.00;;;;;16.96;52.75;97723.59;6164145;28;96875;-63
2022/09/17 06:02:38;;;;;;;;;5.80;5.80;;;;;17.04;52.35;97714.78;6149870;28;97743;-62
2022/09/17 06:05:42;;;;;;;;;6.00;5.80;;;;;17.20;52.13;97718.94;6164551;28;97593;-62
2022/09/17 06:08:45;;;;;;;;;5.40;5.00;;;;;17.32;51.81;97727.47;6165439;28;97467;-63
2022/09/17 06:11:50;;;;;;;;;4.75;4.75;;;;;17.46;51.60;97725.63;6165087;28;98747;-62
2022/09/17 06:14:54;;;;;;;;;9.00;8.00;;;;;17.65;51.26;97707.41;6165399;28;96746;-62
2022/09/17 06:17:57;;;;;;;;;8.00;7.00;;;;;17.85;50.49;97706.28;6163069;28;97375;-63
2022/09/17 06:21:02;;;;;;;;;6.25;6.25;;;;;17.98;50.37;97708.25;6164346;28;97385;-62
2022/09/17 06:24:06;;;;;;;;;5.00;5.00;;;;;18.11;50.27;97706.66;6163246;28;97623;-63
2022/09/17 06:27:10;;;;;;;;;6.40;6.40;;;;;18.19;49.58;97705.97;6160760;28;99695;-63
2022/09/17 06:30:14;;;;;;;;;4.60;4.00;;;;;18.36;49.67;97697.22;6154465;28;97250;-63
2022/09/17 06:33:17;;;;;;;;;6.00;6.00;;;;;18.47;49.21;97702.19;6159116;28;97564;-62
2022/09/17 06:36:21;;;;;;;;;7.00;5.00;;;;;18.73;49.10;97718.13;6175538;28;98824;-63
2022/09/17 06:39:24;;;;;;;;;6.00;5.60;;;;;18.83;48.51;97717.91;6161355;28;97053;-63
2022/09/17 06:42:29;;;;;;;;;6.00;6.00;;;;;18.99;48.47;97721.97;6170873;28;98064;-62
2022/09/17 06:45:32;;;;;;;;;6.60;4.60;;;;;19.03;47.66;97715.59;6160408;28;96691;-62
2022/09/17 06:48:37;;;;;;;;;7.00;6.00;;;;;19.09;47.38;97720.94;6157693;28;98289;-62
2022/09/17 06:51:40;;;;;;;;;6.60;6.00;;;;;19.23;47.17;97719.00;6171617;28;97484;-62
2022/09/17 06:54:43;;;;;;;;;5.00;5.00;;;;;19.22;46.93;97720.13;6157241;28;99602;-63
2022/09/17 06:57:49;;;;;;;;;7.00;7.00;;;;;19.23;47.20;97717.09;6159857;28;97595;-62
2022/09/17 07:00:52;;;;;;;;;5.80;5.00;;;;;19.22;47.17;97718.19;6174337;28;97131;-63
2022/09/17 07:03:56;;;;;;;;;5.00;5.00;;;;;19.22;47.40;97718.19;6144220;28;97865;-62
2022/09/17 07:07:00;;;;;;;;;6.20;6.20;;;;;19.20;46.98;97711.44;6171606;28;96444;-62
2022/09/17 07:10:03;;;;;;;;;7.00;7.00;;;;;19.18;47.02;97711.72;6162197;28;99190;-62
2022/09/17 07:13:08;;;;;;;;;8.00;7.67;;;;;19.18;46.43;97714.47;6162877;28;97403;-63
2022/09/17 07:16:12;;;;;;;;;7.00;7.00;;;;;19.29;46.41;97726.00;6164416;28;97325;-63
2022/09/17 07:19:16;;;;;;;;;7.00;6.00;;;;;19.33;46.42;97713.31;6161848;28;97414;-62
2022/09/17 07:22:19;;;;;;;;;6.80;6.80;;;;;19.33;46.47;97718.78;6159285;28;96616;-62
2022/09/17 07:25:23;;;;;;;;;8.20;7.20;;;;;19.46;45.64;97726.19;6159378;28;99533;-63
2022/09/17 07:28:28;;;;;;;;;7.60;7.00;;;;;19.60;45.21;97726.13;6160864;28;97465;-63
2022/09/17 07:31:32;;;;;;;;;7.00;7.00;;;;;19.76;44.98;97741.09;6144057;28;98331;-63
2022/09/17 07:34:35;;;;;;;;;7.60;7.00;;;;;19.92;44.55;97742.34;6164893;28;97207;-63
2022/09/17 07:37:39;;;;;;;;;8.40;7.20;;;;;20.09;44.61;97741.66;6163744;28;97370;-63
2022/09/17 07:40:42;;;;;;;;;7.00;6.00;;;;;20.17;43.83;97746.41;6163415;28;97219;-63
2022/09/17 07:43:46;;;;;;;;;8.60;7.00;;;;;20.24;43.67;97766.72;6163950;28;97479;-62
2022/09/17 07:46:50;;;;;;;;;7.00;7.00;;;;;20.40;43.36;97767.19;6164549;28;96629;-63
2022/09/17 07:49:53;;;;;;;;;7.00;6.00;;;;;20.59;43.28;97781.47;6160837;28;97660;-63
2022/09/17 07:52:57;;;;;;;;;5.00;5.00;;;;;20.35;43.06;97761.84;6162964;28;97740;-62
2022/09/17 07:56:01;;;;;;;;;6.00;5.75;;;;;20.53;43.31;97757.28;6161961;28;97180;-62
2022/09/17 07:59:06;;;;;;;;;8.00;8.00;;;;;20.41;42.63;97754.31;6162024;28;96883;-62
2022/09/17 08:02:12;;;;;;;;;5.80;5.00;;;;;20.37;42.60;97761.53;6162296;28;98191;-62
2022/09/17 08:05:16;;;;;;;;;6.00;5.00;;;;;20.24;42.43;97747.56;6164184;28;97416;-63
2022/09/17 08:08:20;;;;;;;;;4.20;4.20;;;;;20.01;42.58;97740.50;6161781;28;96747;-62
2022/09/17 08:11:28;;;;;;;;;5.67;5.67;;;;;20.11;43.30;97742.16;6160199;28;97374;-63
2022/09/17 08:14:53;;;;;;;;;4.25;4.25;;;;;20.10;43.52;97746.84;6158919;28;97582;-63
2022/09/17 08:17:56;;;;;;;;;4.20;4.20;;;;;20.08;42.79;97740.88;6159600;28;96997;-63
2022/09/17 08:21:04;;;;;;;;;7.00;6.80;;;;;20.11;43.04;97739.44;6161272;28;96831;-62
2022/09/17 08:24:07;;;;;;;;;5.00;5.00;;;;;20.23;43.48;97737.75;6161843;28;97396;-63
2022/09/17 08:27:11;;;;;;;;;4.00;4.00;;;;;20.30;42.88;97740.03;6161120;28;97085;-63
2022/09/17 08:30:15;;;;;;;;;4.50;4.00;;;;;20.53;42.12;97738.09;6157987;28;97425;-64
2022/09/17 08:33:19;;;;;;;;;5.50;4.50;;;;;20.97;41.88;97739.91;6142262;28;96612;-64
2022/09/17 08:36:24;;;;;;;;;5.00;5.00;;;;;21.35;40.42;97738.31;6160826;28;96676;-65
2022/09/17 08:39:28;;;;;;;;;4.00;3.00;;;;;21.58;39.78;97753.50;6160271;28;97066;-64
2022/09/17 08:42:39;;;;;;;;;3.20;3.00;;;;;21.64;39.46;97742.41;6159622;28;96959;-64
2022/09/17 08:45:44;;;;;;;;;3.00;3.00;;;;;21.57;38.33;97735.44;6161866;28;97709;-65
2022/09/17 08:48:53;;;;;;;;;2.00;2.00;;;;;21.83;38.22;97740.16;6162913;28;96758;-64
2022/09/17 08:52:23;;;;;;;;;4.00;3.60;;;;;22.18;37.55;97727.25;6163100;28;97234;-65
2022/09/17 08:55:34;;;;;;;;;3.40;3.00;;;;;22.60;36.37;97742.00;6162406;28;96847;-65
2022/09/17 08:58:44;;;;;;;;;4.00;4.00;;;;;22.88;36.58;97741.28;6161090;28;96852;-64
2022/09/17 09:01:59;;;;;;;;;3.00;3.00;;;;;22.92;36.10;97732.41;6162117;28;97275;-65
2022/09/17 09:05:12;;;;;;;;;3.00;3.00;;;;;22.90;36.07;97732.72;6161369;28;97387;-64
2022/09/17 09:08:22;;;;;;;;;4.00;4.00;;;;;23.21;35.46;97729.69;6162702;28;97084;-65
2022/09/17 09:11:29;;;;;;;;;4.00;4.00;;;;;23.70;35.00;97726.13;6159377;28;98418;-65
2022/09/17 09:14:39;;;;;;;;;5.00;5.00;;;;;24.23;33.98;97723.78;6160780;28;96606;-64
2022/09/17 09:17:47;;;;;;;;;4.00;4.00;;;;;24.22;34.27;97711.16;6162562;28;96649;-64
2022/09/17 09:20:54;;;;;;;;;4.60;4.60;;;;;23.94;33.22;97708.97;6162749;28;96931;-64
2022/09/17 09:24:08;;;;;;;;;4.00;3.20;;;;;23.72;33.87;97704.59;6160417;28;96638;-65
2022/09/17 09:27:17;;;;;;;;;5.00;4.25;;;;;23.48;34.20;97707.22;6161004;28;96542;-65
2022/09/17 09:30:22;;;;;;;;;3.60;3.60;;;;;23.31;34.06;97730.09;6157338;28;97145;-66
2022/09/17 09:33:32;;;;;;;;;3.00;2.40;;;;;23.33;34.42;97735.25;6159255;28;97685;-65
2022/09/17 09:36:39;;;;;;;;;4.00;4.00;;;;;23.39;33.94;97744.13;6160094;28;96520;-65
2022/09/17 09:39:47;;;;;;;;;3.00;3.00;;;;;23.29;34.69;97739.81;6158346;28;97014;-65
2022/09/17 09:42:53;;;;;;;;;3.80;3.80;;;;;23.24;34.94;97740.81;6160382;28;96624;-64
2022/09/17 09:46:31;;;;;;;;;4.00;3.60;;;;;23.26;34.80;97751.50;6160218;28;96734;-65
2022/09/17 09:49:49;;;;;;;;;5.00;5.00;;;;;23.23;34.38;97750.19;6140670;28;98445;-65
2022/09/17 09:53:04;;;;;;;;;5.00;5.00;;;;;23.57;33.92;97751.16;6158982;28;97518;-64
2022/09/17 09:56:28;;;;;;;;;3.75;3.00;;;;;23.77;34.40;97736.63;6157677;28;98560;-64
2022/09/17 09:59:32;;;;;;;;;3.00;3.00;;;;;23.50;33.90;97740.69;6160753;28;97301;-65
2022/09/17 10:02:35;;;;;;;;;3.00;3.00;;;;;23.74;34.07;97749.13;6152613;28;98496;-64
2022/09/17 10:05:51;;;;;;;;;4.00;4.00;;;;;24.15;33.28;97759.28;6161444;28;96626;-65
2022/09/17 10:09:12;;;;;;;;;5.00;5.00;;;;;23.97;33.07;97770.78;6161787;28;97559;-65
2022/09/17 10:12:17;;;;;;;;;5.00;4.80;;;;;23.95;33.45;97768.34;6159680;28;97580;-65
2022/09/17 10:15:26;;;;;;;;;4.00;4.00;;;;;24.30;33.12;97765.34;6155725;28;97064;-65
2022/09/17 10:18:30;;;;;;;;;4.00;3.40;;;;;24.17;33.28;97764.50;6156507;28;98386;-65
2022/09/17 10:21:36;;;;;;;;;5.00;4.00;;;;;24.50;32.00;97768.06;6157133;28;98111;-65
2022/09/17 10:24:40;;;;;;;;;4.75;4.75;;;;;24.49;32.40;97757.38;6158649;28;96659;-65
2022/09/17 10:27:45;;;;;;;;;5.00;4.40;;;;;24.46;32.47;97761.63;6160590;28;96597;-65
2022/09/17 10:30:56;;;;;;;;;4.00;4.00;;;;;24.19;33.11;97764.94;6142050;28;98509;-65
2022/09/17 10:34:02;;;;;;;;;5.00;4.00;;;;;24.02;32.39;97763.13;6162666;28;98058;-65
2022/09/17 10:37:35;;;;;;;;;4.60;4.20;;;;;24.01;32.93;97742.25;6164672;28;97600;-65
2022/09/17 10:40:39;;;;;;;;;5.60;5.00;;;;;24.46;32.87;97763.56;6163652;28;97485;-64
2022/09/17 10:43:43;;;;;;;;;4.00;3.00;;;;;24.65;32.01;97765.81;6164126;28;98549;-64
2022/09/17 10:46:46;;;;;;;;;4.40;4.40;;;;;24.54;32.08;97760.72;6166164;28;97403;-65
2022/09/17 10:49:55;;;;;;;;;5.00;5.00;;;;;24.38;32.74;97762.53;6162348;28;97787;-65
2022/09/17 10:53:04;;;;;;;;;4.75;4.25;;;;;24.37;32.32;97760.09;6163000;28;98923;-65
2022/09/17 10:56:21;;;;;;;;;4.00;4.00;;;;;23.91;32.49;97742.66;6164111;28;99016;-65
2022/09/17 10:59:54;;;;;;;;;4.00;4.00;;;;;24.01;33.27;97746.94;6164664;28;96510;-65
2022/09/17 11:03:23;;;;;;;;;5.40;4.40;;;;;24.02;33.17;97749.38;6157083;28;96602;-65
2022/09/17 11:06:49;;;;;;;;;3.60;3.00;;;;;24.09;31.80;97749.63;6141188;28;97618;-65
2022/09/17 11:10:02;;;;;;;;;3.20;3.20;;;;;24.19;31.15;97750.41;6160448;28;96460;-65
2022/09/17 11:13:19;;;;;;;;;3.75;3.75;;;;;23.94;31.33;97760.47;6163347;28;97476;-65
2022/09/17 11:16:36;;;;;;;;;4.00;4.00;;;;;23.53;32.17;97759.28;6163436;28;96630;-65
2022/09/17 11:19:55;;;;;;;;;3.00;3.00;;;;;23.44;32.95;97760.44;6164204;28;96799;-65
2022/09/17 11:23:10;;;;;;;;;3.00;3.00;;;;;23.57;32.86;97773.97;6163342;28;96377;-65
2022/09/17 11:26:30;;;;;;;;;4.00;4.00;;;;;23.35;33.73;97756.94;6160023;28;98053;-65
2022/09/17 11:29:53;;;;;;;;;4.60;4.60;;;;;23.14;33.74;97759.63;6164497;28;97539;-65
2022/09/17 11:33:28;;;;;;;;;4.00;4.00;;;;;22.93;33.31;97756.00;6164223;28;98006;-64
2022/09/17 11:36:39;;;;;;;;;4.00;4.00;;;;;22.78;34.11;97763.63;6164618;28;96521;-65
2022/09/17 11:39:49;;;;;;;;;3.00;3.00;;;;;22.52;34.11;97742.84;6163901;28;97568;-64
2022/09/17 11:42:59;;;;;;;;;4.00;4.00;;;;;22.53;35.38;97755.47;6171496;28;97961;-65
2022/09/17 11:46:09;;;;;;;;;3.75;3.75;;;;;22.45;35.55;97762.56;6162995;28;96527;-64
2022/09/17 11:49:20;;;;;;;;;3.00;3.00;;;;;22.25;35.93;97780.50;6162527;28;96447;-66
2022/09/17 11:52:31;;;;;;;;;3.00;3.00;;;;;22.06;36.63;97788.28;6159543;28;98077;-64
2022/09/17 11:55:42;;;;;;;;;4.00;4.00;;;;;21.88;36.73;97784.69;6160532;28;97430;-65
2022/09/17 11:58:53;;;;;;;;;3.80;3.80;;;;;21.66;37.45;97775.78;6143797;28;97796;-64
2022/09/17 12:02:02;;;;;;;;;5.00;4.60;;;;;21.39;37.86;97763.97;6160366;28;97432;-65
2022/09/17 12:05:13;;;;;;;;;4.00;4.00;;;;;21.21;38.13;97758.75;6158902;28;99027;-64
2022/09/17 12:08:21;;;;;;;;;3.20;3.20;;;;;21.13;38.89;97750.19;6161302;28;97101;-64
2022/09/17 12:11:33;;;;;;;;;5.00;5.00;;;;;21.09;38.67;97759.31;6160812;28;97459;-65
2022/09/17 12:14:46;;;;;;;;;5.00;4.75;;;;;21.02;39.31;97754.28;6158997;28;97772;-65
2022/09/17 12:17:54;;;;;;;;;5.40;5.40;;;;;;;;6143161;28;98331;-64
2022/09/17 12:21:23;;;;;;;;;4.40;4.00;;;;;20.87;39.75;97741.00;6162224;28;96795;-65
2022/09/17 12:24:28;;;;;;;;;5.40;5.40;;;;;20.77;40.36;97743.25;6161666;28;97936;-65
2022/09/17 12:27:38;;;;;;;;;4.00;4.00;;;;;20.71;40.72;97740.66;6162311;28;96461;-64
2022/09/17 12:30:49;;;;;;;;;5.40;5.00;;;;;20.72;40.39;97746.94;6162856;28;96362;-65
2022/09/17 12:33:58;;;;;;;;;4.00;4.00;;;;;20.74;40.32;97731.78;6161887;28;97936;-65
2022/09/17 12:37:10;;;;;;;;;6.00;5.00;;;;;20.79;40.02;97719.88;6163942;28;96997;-65
2022/09/17 12:40:27;;;;;;;;;4.60;4.60;;;;;20.85;40.58;97720.56;6161878;28;96485;-65
2022/09/17 12:43:45;;;;;;;;;4.20;4.20;;;;;20.95;40.46;97703.84;6163085;28;97531;-65
2022/09/17 12:47:10;;;;;;;;;4.00;3.60;;;;;21.11;39.88;97697.56;6161944;28;97419;-64
2022/09/17 12:50:21;;;;;;;;;4.60;4.00;;;;;21.23;39.97;97705.22;6160416;28;98096;-65
2022/09/17 12:53:30;;;;;;;;;4.40;4.40;;;;;21.36;39.29;97703.47;6145594;28;97070;-64
2022/09/17 12:56:50;;;;;;;;;7.00;7.00;;;;;21.43;39.30;97696.41;6160289;28;97847;-65
2022/09/17 13:00:00;;;;;;;;;6.40;6.40;;;;;21.42;38.94;97680.25;6162320;28;96797;-65
2022/09/17 13:03:21;;;;;;;;;6.00;6.00;;;;;21.46;39.81;97682.03;6162448;28;97487;-65
2022/09/17 13:07:11;;;;;;;;;4.80;4.80;;;;;21.28;39.78;97677.66;6162934;28;96974;-65
2022/09/17 13:10:53;;;;;;;;;5.00;5.00;;;;;21.22;39.92;97681.69;6160898;28;97346;-64
2022/09/17 13:14:04;;;;;;;;;8.00;7.00;;;;;21.13;40.39;97686.31;6163044;28;96936;-65
2022/09/17 13:17:14;;;;;;;;;6.50;6.00;;;;;21.04;40.66;97683.56;6161708;28;96682;-65
2022/09/17 13:20:23;;;;;;;;;7.00;7.00;;;;;20.94;40.81;97678.38;6160327;28;96764;-64
2022/09/17 13:23:34;;;;;;;;;7.00;6.25;;;;;20.80;40.63;97680.41;6172284;28;97552;-65
2022/09/17 13:26:39;;;;;;;;;6.40;5.00;;;;;20.34;40.60;97606.94;6156105;28;96852;-64
2022/09/17 13:30:01;;;;;;;;;5.00;5.00;;;;;20.75;40.06;97686.03;6171948;28;97474;-64
2022/09/17 13:33:05;;;;;;;;;6.00;5.20;;;;;20.67;40.74;97690.34;6157749;28;97964;-64
2022/09/17 13:36:36;;;;;;;;;6.00;5.75;;;;;20.54;40.70;97679.50;6164050;28;97394;-65
2022/09/17 13:39:44;;;;;;;;;6.00;6.00;;;;;20.50;40.95;97695.75;6158953;28;97387;-64
2022/09/17 13:42:51;;;;;;;;;6.50;6.50;;;;;20.50;40.89;97701.22;6160472;28;97371;-65
2022/09/17 13:46:14;;;;;;;;;9.00;8.00;;;;;20.59;40.94;97695.78;6160685;28;97078;-65
2022/09/17 13:49:18;;;;;;;;;7.00;6.80;;;;;20.64;40.75;97682.78;6158868;28;98692;-64
2022/09/17 13:52:33;;;;;;;;;7.75;6.75;;;;;20.58;40.91;97691.44;6159222;28;97958;-64
2022/09/17 13:55:39;;;;;;;;;8.00;8.00;;;;;20.58;40.90;97675.00;6157723;28;97888;-65
2022/09/17 13:58:43;;;;;;;;;5.00;5.00;;;;;20.73;41.00;97677.31;6149792;28;98736;-65
2022/09/17 14:02:01;;;;;;;;;6.00;5.00;;;;;20.78;41.45;97682.66;6158944;28;97483;-64
2022/09/17 14:05:29;;;;;;;;;4.00;4.00;;;;;20.94;40.66;97681.09;6160288;28;98330;-64
2022/09/17 14:08:48;;;;;;;;;8.40;6.00;;;;;21.06;40.07;97666.81;6151281;28;98671;-64
2022/09/17 14:11:52;;;;;;;;;7.00;5.60;;;;;21.09;40.42;97666.16;6157326;28;99654;-64
2022/09/17 14:14:55;;;;;;;;;7.00;6.80;;;;;21.03;40.24;97648.25;6164515;28;97505;-64
2022/09/17 14:17:58;;;;;;;;;11.00;10.80;;;;;20.93;40.87;97632.09;6160933;28;99588;-65
2022/09/17 14:21:11;;;;;;;;;11.00;10.00;;;;;20.89;40.71;97640.16;6161527;28;97635;-64
2022/09/17 14:24:23;;;;;;;;;10.50;10.00;;;;;20.76;40.83;97652.06;6157165;28;96715;-65
2022/09/17 14:27:50;;;;;;;;;8.20;7.80;;;;;20.69;41.34;97648.94;6162031;28;96715;-64
2022/09/17 14:30:54;;;;;;;;;8.00;8.00;;;;;20.56;41.49;97658.91;6164598;28;96622;-64
2022/09/17 14:33:57;;;;;;;;;10.25;10.00;;;;;20.47;41.83;97658.06;6163250;28;99708;-65
2022/09/17 14:37:01;;;;;;;;;18.00;14.20;;;;;20.46;41.38;97648.22;6165260;28;96770;-64
2022/09/17 14:40:14;;;;;;;;;13.00;13.00;;;;;20.49;41.48;97644.03;6162798;28;97161;-65
2022/09/17 14:43:24;;;;;;;;;10.00;10.00;;;;;20.33;41.80;97651.06;6160801;28;97488;-65
2022/09/17 14:46:31;;;;;;;;;10.25;8.75;;;;;20.19;42.41;97653.84;6162632;28;97286;-65
2022/09/17 14:49:35;;;;;;;;;9.25;9.25;;;;;19.95;42.56;97665.13;6158111;28;96658;-64